Time,TemperatureF,DewpointF,PressureIn,WindDirection,WindDirectionDegrees,WindSpeedMPH,WindSpeedGustMPH,Humidity,HourlyPrecipIn,Conditions,Clouds,dailyrainin,SoftwareType,DateUTC
2013-01-26 00:03:00,42.7,42.2,30.02,South,179,6.0,13.0,98,0.00,,,0.00,Wunderground v.1.15,2013-01-26 08:03:00,
2013-01-26 00:09:00,42.9,42.4,30.01,South,175,7.0,13.0,98,0.00,,,0.00,Wunderground v.1.15,2013-01-26 08:09:00,
2013-01-26 00:15:00,43.0,42.2,30.02,South,175,6.0,8.0,97,0.00,,,0.00,Wunderground v.1.15,2013-01-26 08:15:00,
2013-01-26 00:21:00,43.0,42.2,30.02,South,182,5.0,10.0,97,0.25,,,0.02,Wunderground v.1.15,2013-01-26 08:21:00,
2013-01-26 00:27:00,43.4,42.9,30.01,South,183,6.0,11.0,98,0.07,,,0.02,Wunderground v.1.15,2013-01-26 08:27:00,
2013-01-26 00:32:00,43.9,43.4,30.01,SSW,199,8.0,13.0,98,0.04,,,0.02,Wunderground v.1.15,2013-01-26 08:32:00,
2013-01-26 00:38:00,44.2,43.4,30.01,SSW,195,9.0,13.0,97,0.00,,,0.02,Wunderground v.1.15,2013-01-26 08:38:00,
2013-01-26 00:44:00,44.5,43.7,30.01,South,177,9.0,17.0,97,0.00,,,0.02,Wunderground v.1.15,2013-01-26 08:44:00,
2013-01-26 00:49:00,44.7,43.9,30.01,SSW,200,10.0,17.0,97,0.00,,,0.02,Wunderground v.1.15,2013-01-26 08:49:00,
2013-01-26 00:55:00,44.7,43.9,30.01,SSW,200,10.0,16.0,97,0.00,,,0.02,Wunderground v.1.15,2013-01-26 08:55:00,
2013-01-26 01:01:00,44.6,43.8,30.01,SSW,205,10.0,12.0,97,0.00,,,0.02,Wunderground v.1.15,2013-01-26 09:01:00,
2013-01-26 01:07:00,44.7,43.9,30.01,South,183,10.0,12.0,97,0.00,,,0.02,Wunderground v.1.15,2013-01-26 09:07:00,
2013-01-26 01:13:00,44.8,43.7,30.01,SSW,201,10.0,12.0,96,0.00,,,0.02,Wunderground v.1.15,2013-01-26 09:13:00,
2013-01-26 01:18:00,44.9,43.8,30.01,SSW,192,9.0,12.0,96,0.00,,,0.02,Wunderground v.1.15,2013-01-26 09:18:00,
2013-01-26 01:23:00,44.9,43.6,30.01,SSW,206,9.0,15.0,95,0.00,,,0.02,Wunderground v.1.15,2013-01-26 09:23:00,
2013-01-26 01:28:00,45.0,43.7,30.01,South,182,9.0,15.0,95,0.00,,,0.02,Wunderground v.1.15,2013-01-26 09:28:00,
2013-01-26 01:34:00,45.0,43.7,30.01,SSW,210,10.0,13.0,95,0.00,,,0.02,Wunderground v.1.15,2013-01-26 09:34:00,
2013-01-26 01:40:00,45.0,43.7,30.00,SW,217,9.0,9.0,95,0.00,,,0.02,Wunderground v.1.15,2013-01-26 09:40:00,
2013-01-26 01:46:00,45.1,43.5,30.00,SW,214,9.0,12.0,94,0.00,,,0.02,Wunderground v.1.15,2013-01-26 09:46:00,
2013-01-26 01:52:00,45.3,43.7,30.00,SSW,205,8.0,13.0,94,0.00,,,0.02,Wunderground v.1.15,2013-01-26 09:52:00,
2013-01-26 01:57:00,45.3,43.7,30.01,SSW,198,8.0,13.0,94,0.00,,,0.02,Wunderground v.1.15,2013-01-26 09:57:00,
2013-01-26 02:02:00,45.4,44.1,30.01,SSW,197,8.0,12.0,95,0.00,,,0.02,Wunderground v.1.15,2013-01-26 10:02:00,
2013-01-26 02:08:00,45.2,43.9,30.01,SSW,202,7.0,12.0,95,0.00,,,0.02,Wunderground v.1.15,2013-01-26 10:08:00,
2013-01-26 02:13:00,45.1,43.8,30.01,SSW,212,7.0,12.0,95,0.00,,,0.02,Wunderground v.1.15,2013-01-26 10:13:00,
2013-01-26 02:18:00,45.4,44.1,30.01,South,180,7.0,12.0,95,0.00,,,0.02,Wunderground v.1.15,2013-01-26 10:18:00,
2013-01-26 02:24:00,45.2,43.9,30.01,South,169,8.0,12.0,95,0.00,,,0.02,Wunderground v.1.15,2013-01-26 10:24:00,
2013-01-26 02:30:00,45.3,44.2,30.01,SSW,212,7.0,12.0,96,0.00,,,0.02,Wunderground v.1.15,2013-01-26 10:30:00,
2013-01-26 02:36:00,44.1,42.2,30.01,WSW,241,9.0,15.0,93,0.00,,,0.02,Wunderground v.1.15,2013-01-26 10:36:00,
2013-01-26 02:41:00,44.3,41.8,30.00,WSW,257,10.0,12.0,91,0.00,,,0.02,Wunderground v.1.15,2013-01-26 10:41:00,
2013-01-26 02:46:00,45.3,42.2,30.01,WSW,240,11.0,15.0,89,0.00,,,0.02,Wunderground v.1.15,2013-01-26 10:46:00,
2013-01-26 02:52:00,45.9,42.8,30.01,SW,227,13.0,14.0,89,0.00,,,0.02,Wunderground v.1.15,2013-01-26 10:52:00,
2013-01-26 02:57:00,46.1,42.7,30.00,SW,234,13.0,16.0,88,0.00,,,0.02,Wunderground v.1.15,2013-01-26 10:57:00,
2013-01-26 03:03:00,46.2,42.8,30.01,SW,221,12.0,12.0,88,0.00,,,0.02,Wunderground v.1.15,2013-01-26 11:03:00,
2013-01-26 03:08:00,46.3,42.9,30.01,SW,231,10.0,13.0,88,0.00,,,0.02,Wunderground v.1.15,2013-01-26 11:08:00,
2013-01-26 03:13:00,46.1,42.4,30.01,SW,230,8.0,12.0,87,0.00,,,0.02,Wunderground v.1.15,2013-01-26 11:13:00,
2013-01-26 03:19:00,46.2,42.2,30.01,SW,236,8.0,12.0,86,0.00,,,0.02,Wunderground v.1.15,2013-01-26 11:19:00,
2013-01-26 03:24:00,46.2,42.2,30.01,SW,229,8.0,12.0,86,0.00,,,0.02,Wunderground v.1.15,2013-01-26 11:24:00,
2013-01-26 03:30:00,46.3,42.3,30.00,SW,215,9.0,9.0,86,0.00,,,0.02,Wunderground v.1.15,2013-01-26 11:30:00,
2013-01-26 03:35:00,46.2,41.9,30.00,WSW,247,9.0,12.0,85,0.00,,,0.02,Wunderground v.1.15,2013-01-26 11:35:00,
2013-01-26 03:40:00,46.2,41.9,30.01,SW,226,9.0,13.0,85,0.00,,,0.02,Wunderground v.1.15,2013-01-26 11:40:00,
2013-01-26 03:45:00,46.2,41.9,30.01,SW,229,9.0,13.0,85,0.00,,,0.02,Wunderground v.1.15,2013-01-26 11:45:00,
2013-01-26 03:51:00,46.3,42.0,30.01,SW,223,9.0,12.0,85,0.00,,,0.02,Wunderground v.1.15,2013-01-26 11:51:00,
2013-01-26 03:56:00,46.3,42.3,30.01,SW,232,9.0,13.0,86,0.00,,,0.02,Wunderground v.1.15,2013-01-26 11:56:00,
2013-01-26 04:02:00,45.9,41.9,30.00,SW,232,11.0,13.0,86,0.00,,,0.02,Wunderground v.1.15,2013-01-26 12:02:00,
2013-01-26 04:08:00,45.8,41.9,30.01,WSW,253,11.0,14.0,86,0.00,,,0.02,Wunderground v.1.15,2013-01-26 12:08:00,
2013-01-26 04:13:00,45.9,41.9,30.00,WSW,257,11.0,14.0,86,0.00,,,0.02,Wunderground v.1.15,2013-01-26 12:13:00,
2013-01-26 04:19:00,46.1,41.8,30.00,WSW,247,12.0,14.0,85,0.00,,,0.02,Wunderground v.1.15,2013-01-26 12:19:00,
2013-01-26 04:24:00,46.1,41.2,30.00,WSW,242,13.0,16.0,83,0.00,,,0.02,Wunderground v.1.15,2013-01-26 12:24:00,
2013-01-26 04:30:00,46.1,41.2,30.00,WSW,238,12.0,12.0,83,0.00,,,0.02,Wunderground v.1.15,2013-01-26 12:30:00,
2013-01-26 04:35:00,46.1,41.5,30.00,WSW,238,11.0,14.0,84,0.00,,,0.02,Wunderground v.1.15,2013-01-26 12:35:00,
2013-01-26 04:40:00,46.2,41.6,30.00,WSW,251,11.0,11.0,84,0.00,,,0.02,Wunderground v.1.15,2013-01-26 12:40:00,
2013-01-26 04:46:00,45.0,40.1,30.00,SW,232,13.0,16.0,83,0.00,,,0.03,Wunderground v.1.15,2013-01-26 12:46:00,
2013-01-26 04:51:00,44.7,40.2,30.00,SW,225,12.0,12.0,84,0.00,,,0.03,Wunderground v.1.15,2013-01-26 12:51:00,
2013-01-26 04:56:00,45.1,40.6,30.00,SW,223,9.0,12.0,84,0.00,,,0.03,Wunderground v.1.15,2013-01-26 12:56:00,
2013-01-26 05:02:00,45.4,40.5,30.00,SW,232,8.0,12.0,83,0.00,,,0.03,Wunderground v.1.15,2013-01-26 13:02:00,
2013-01-26 05:08:00,45.6,40.4,30.00,SW,221,7.0,12.0,82,0.00,,,0.03,Wunderground v.1.15,2013-01-26 13:08:00,
2013-01-26 05:13:00,45.6,40.7,30.00,SW,225,7.0,12.0,83,0.00,,,0.03,Wunderground v.1.15,2013-01-26 13:13:00,
2013-01-26 05:18:00,45.7,41.1,30.00,WSW,238,8.0,12.0,84,0.00,,,0.03,Wunderground v.1.15,2013-01-26 13:18:00,
2013-01-26 05:24:00,45.8,41.2,30.00,SW,228,7.0,12.0,84,0.00,,,0.03,Wunderground v.1.15,2013-01-26 13:24:00,
2013-01-26 05:30:00,45.8,41.5,30.00,SW,228,6.0,12.0,85,0.00,,,0.03,Wunderground v.1.15,2013-01-26 13:30:00,
2013-01-26 05:35:00,45.8,41.5,30.00,SW,225,7.0,12.0,85,0.00,,,0.03,Wunderground v.1.15,2013-01-26 13:35:00,
2013-01-26 05:58:00,45.9,41.0,30.00,WSW,246,7.0,8.0,83,0.00,,,0.03,Wunderground v.1.15,2013-01-26 13:58:00,
2013-01-26 06:04:00,45.9,41.3,30.00,SW,236,7.0,7.0,84,0.00,,,0.03,Wunderground v.1.15,2013-01-26 14:04:00,
2013-01-26 06:09:00,45.8,41.2,30.00,SW,227,7.0,9.0,84,0.00,,,0.03,Wunderground v.1.15,2013-01-26 14:09:00,
2013-01-26 06:15:00,45.9,41.3,30.00,SW,232,8.0,11.0,84,0.00,,,0.03,Wunderground v.1.15,2013-01-26 14:15:00,
2013-01-26 06:21:00,45.9,41.3,30.00,SW,223,9.0,9.0,84,0.00,,,0.03,Wunderground v.1.15,2013-01-26 14:21:00,
2013-01-26 06:26:00,46.0,41.7,30.00,WSW,246,9.0,12.0,85,0.00,,,0.03,Wunderground v.1.15,2013-01-26 14:26:00,
2013-01-26 06:32:00,45.9,41.6,30.00,SW,234,10.0,12.0,85,0.00,,,0.03,Wunderground v.1.15,2013-01-26 14:32:00,
2013-01-26 06:37:00,45.8,41.5,30.00,WSW,239,10.0,13.0,85,0.00,,,0.03,Wunderground v.1.15,2013-01-26 14:37:00,
2013-01-26 06:43:00,45.7,41.4,30.00,SW,229,8.0,12.0,85,0.00,,,0.03,Wunderground v.1.15,2013-01-26 14:43:00,
2013-01-26 06:48:00,45.6,40.7,30.00,SW,226,7.0,12.0,83,0.00,,,0.03,Wunderground v.1.15,2013-01-26 14:48:00,
2013-01-26 06:54:00,45.8,40.9,30.01,SW,223,8.0,12.0,83,0.00,,,0.03,Wunderground v.1.15,2013-01-26 14:54:00,
2013-01-26 07:00:00,45.9,41.0,30.00,SSW,210,8.0,8.0,83,0.00,,,0.03,Wunderground v.1.15,2013-01-26 15:00:00,
2013-01-26 07:05:00,45.9,41.0,30.01,WSW,247,7.0,12.0,83,0.00,,,0.03,Wunderground v.1.15,2013-01-26 15:05:00,
2013-01-26 07:11:00,45.7,41.1,30.01,WSW,239,7.0,12.0,84,0.00,,,0.03,Wunderground v.1.15,2013-01-26 15:11:00,
2013-01-26 07:16:00,45.4,41.2,30.01,WSW,249,6.0,12.0,85,0.00,,,0.03,Wunderground v.1.15,2013-01-26 15:16:00,
2013-01-26 07:21:00,44.5,39.7,30.01,SW,223,7.0,12.0,83,0.00,,,0.03,Wunderground v.1.15,2013-01-26 15:21:00,
2013-01-26 07:27:00,44.9,41.3,30.01,SW,234,7.0,12.0,87,0.00,,,0.03,Wunderground v.1.15,2013-01-26 15:27:00,
2013-01-26 07:32:00,44.9,41.3,30.01,WNW,292,6.0,12.0,87,0.00,,,0.03,Wunderground v.1.15,2013-01-26 15:32:00,
2013-01-26 07:38:00,44.6,41.3,30.01,WNW,297,4.0,12.0,88,0.00,,,0.03,Wunderground v.1.15,2013-01-26 15:38:00,
2013-01-26 07:43:00,44.6,41.6,30.01,WSW,245,6.0,12.0,89,0.00,,,0.03,Wunderground v.1.15,2013-01-26 15:43:00,
2013-01-26 07:48:00,44.0,40.4,30.01,WSW,245,8.0,12.0,87,0.00,,,0.03,Wunderground v.1.15,2013-01-26 15:48:00,
2013-01-26 07:54:00,43.9,40.0,30.01,WSW,250,8.0,12.0,86,0.00,,,0.04,Wunderground v.1.15,2013-01-26 15:54:00,
2013-01-26 07:59:00,44.0,40.1,30.01,SW,234,7.0,12.0,86,0.00,,,0.04,Wunderground v.1.15,2013-01-26 15:59:00,
2013-01-26 08:05:00,44.1,39.9,30.01,SW,226,6.0,12.0,85,0.00,,,0.04,Wunderground v.1.15,2013-01-26 16:05:00,
2013-01-26 08:10:00,44.4,39.9,30.01,WSW,248,6.0,6.0,84,0.00,,,0.04,Wunderground v.1.15,2013-01-26 16:10:00,
2013-01-26 08:15:00,44.5,39.7,30.01,SSW,211,8.0,12.0,83,0.00,,,0.04,Wunderground v.1.15,2013-01-26 16:15:00,
2013-01-26 08:21:00,44.8,39.6,30.02,SW,217,9.0,12.0,82,0.00,,,0.04,Wunderground v.1.15,2013-01-26 16:21:00,
2013-01-26 08:27:00,44.8,39.6,30.02,SW,235,9.0,12.0,82,0.00,,,0.04,Wunderground v.1.15,2013-01-26 16:27:00,
2013-01-26 08:32:00,44.9,40.0,30.02,SW,225,9.0,12.0,83,0.00,,,0.04,Wunderground v.1.15,2013-01-26 16:32:00,
2013-01-26 08:38:00,45.1,40.6,30.02,SW,226,8.0,12.0,84,0.00,,,0.04,Wunderground v.1.15,2013-01-26 16:38:00,
2013-01-26 08:44:00,45.2,41.0,30.02,WSW,238,9.0,12.0,85,0.00,,,0.04,Wunderground v.1.15,2013-01-26 16:44:00,
2013-01-26 08:50:00,45.3,41.4,30.02,SW,233,9.0,9.0,86,0.00,,,0.04,Wunderground v.1.15,2013-01-26 16:50:00,
2013-01-26 08:55:00,45.3,41.1,30.02,SW,221,9.0,12.0,85,0.00,,,0.04,Wunderground v.1.15,2013-01-26 16:55:00,
2013-01-26 09:01:00,45.3,40.7,30.02,SW,231,9.0,12.0,84,0.00,,,0.04,Wunderground v.1.15,2013-01-26 17:01:00,
2013-01-26 09:07:00,45.4,40.5,30.02,WSW,244,10.0,12.0,83,0.00,,,0.04,Wunderground v.1.15,2013-01-26 17:07:00,
2013-01-26 09:13:00,45.5,40.6,30.02,SW,232,10.0,12.0,83,0.00,,,0.04,Wunderground v.1.15,2013-01-26 17:13:00,
2013-01-26 09:19:00,45.6,40.7,30.02,SW,219,9.0,12.0,83,0.00,,,0.04,Wunderground v.1.15,2013-01-26 17:19:00,
2013-01-26 09:25:00,45.7,40.8,30.02,SW,229,8.0,12.0,83,0.00,,,0.04,Wunderground v.1.15,2013-01-26 17:25:00,
2013-01-26 09:31:00,45.9,41.0,30.02,SW,225,9.0,12.0,83,0.00,,,0.04,Wunderground v.1.15,2013-01-26 17:31:00,
2013-01-26 09:36:00,46.0,40.8,30.03,SW,220,9.0,12.0,82,0.00,,,0.04,Wunderground v.1.15,2013-01-26 17:36:00,
2013-01-26 09:42:00,46.3,41.1,30.03,WSW,251,9.0,12.0,82,0.00,,,0.04,Wunderground v.1.15,2013-01-26 17:42:00,
2013-01-26 09:47:00,45.8,40.6,30.03,WSW,245,9.0,12.0,82,0.00,,,0.04,Wunderground v.1.15,2013-01-26 17:47:00,
2013-01-26 09:53:00,44.7,39.9,30.03,WNW,290,6.0,12.0,83,0.00,,,0.04,Wunderground v.1.15,2013-01-26 17:53:00,
2013-01-26 09:58:00,44.2,40.0,30.03,WSW,257,5.0,12.0,85,0.00,,,0.04,Wunderground v.1.15,2013-01-26 17:58:00,
2013-01-26 10:03:00,43.9,40.3,30.03,WSW,257,6.0,12.0,87,0.00,,,0.04,Wunderground v.1.15,2013-01-26 18:03:00,
2013-01-26 10:08:00,44.1,40.8,30.03,WSW,245,6.0,12.0,88,0.00,,,0.04,Wunderground v.1.15,2013-01-26 18:08:00,
2013-01-26 10:14:00,44.5,40.9,30.04,SW,230,6.0,12.0,87,0.00,,,0.04,Wunderground v.1.15,2013-01-26 18:14:00,
2013-01-26 10:20:00,45.4,41.5,30.04,SW,221,6.0,6.0,86,0.00,,,0.04,Wunderground v.1.15,2013-01-26 18:20:00,
2013-01-26 10:26:00,46.1,41.8,30.04,SW,228,7.0,12.0,85,0.00,,,0.05,Wunderground v.1.15,2013-01-26 18:26:00,
2013-01-26 10:32:00,46.4,41.8,30.04,SW,232,8.0,12.0,84,0.00,,,0.05,Wunderground v.1.15,2013-01-26 18:32:00,
2013-01-26 10:37:00,46.7,42.4,30.04,WSW,249,8.0,12.0,85,0.00,,,0.05,Wunderground v.1.15,2013-01-26 18:37:00,
2013-01-26 10:43:00,46.5,41.9,30.04,SW,232,9.0,12.0,84,0.00,,,0.05,Wunderground v.1.15,2013-01-26 18:43:00,
2013-01-26 10:49:00,46.7,41.8,30.04,SW,227,8.0,12.0,83,0.00,,,0.05,Wunderground v.1.15,2013-01-26 18:49:00,
2013-01-26 10:55:00,46.9,41.7,30.04,WSW,238,9.0,12.0,82,0.00,,,0.05,Wunderground v.1.15,2013-01-26 18:55:00,
2013-01-26 11:01:00,46.8,40.6,30.04,SW,236,10.0,12.0,79,0.00,,,0.05,Wunderground v.1.15,2013-01-26 19:01:00,
2013-01-26 11:06:00,47.1,41.6,30.04,WSW,243,10.0,13.0,81,0.00,,,0.05,Wunderground v.1.15,2013-01-26 19:06:00,
2013-01-26 11:12:00,47.3,41.4,30.04,WSW,243,8.0,13.0,80,0.00,,,0.05,Wunderground v.1.15,2013-01-26 19:12:00,
2013-01-26 11:18:00,47.4,40.9,30.04,SW,221,10.0,16.0,78,0.00,,,0.05,Wunderground v.1.15,2013-01-26 19:18:00,
2013-01-26 11:24:00,47.2,40.7,30.04,WSW,243,10.0,12.0,78,0.00,,,0.05,Wunderground v.1.15,2013-01-26 19:24:00,
2013-01-26 11:29:00,46.9,39.7,30.04,WSW,246,10.0,14.0,76,0.00,,,0.05,Wunderground v.1.15,2013-01-26 19:29:00,
2013-01-26 11:35:00,47.2,40.4,30.04,WSW,246,11.0,13.0,77,0.00,,,0.05,Wunderground v.1.15,2013-01-26 19:35:00,
2013-01-26 11:41:00,46.9,40.4,30.04,NW,317,10.0,13.0,78,0.00,,,0.05,Wunderground v.1.15,2013-01-26 19:41:00,
2013-01-26 11:47:00,45.7,40.2,30.04,NW,315,9.0,13.0,81,0.00,,,0.05,Wunderground v.1.15,2013-01-26 19:47:00,
2013-01-26 11:52:00,45.5,40.3,30.04,WNW,285,8.0,12.0,82,0.00,,,0.05,Wunderground v.1.15,2013-01-26 19:52:00,
2013-01-26 11:58:00,45.6,40.7,30.03,West,271,8.0,12.0,83,0.00,,,0.05,Wunderground v.1.15,2013-01-26 19:58:00,
2013-01-26 12:03:00,44.5,39.3,30.04,SW,217,10.0,16.0,82,0.00,,,0.05,Wunderground v.1.15,2013-01-26 20:03:00,
2013-01-26 12:09:00,44.1,38.3,30.04,West,265,12.0,18.0,80,0.00,,,0.05,Wunderground v.1.15,2013-01-26 20:09:00,
2013-01-26 12:15:00,43.9,38.8,30.04,West,268,8.0,13.0,82,0.00,,,0.05,Wunderground v.1.15,2013-01-26 20:15:00,
2013-01-26 12:21:00,44.4,39.6,30.03,WSW,257,8.0,12.0,83,0.00,,,0.05,Wunderground v.1.15,2013-01-26 20:21:00,
2013-01-26 12:26:00,44.8,40.3,30.03,SW,231,7.0,12.0,84,0.00,,,0.05,Wunderground v.1.15,2013-01-26 20:26:00,
2013-01-26 12:32:00,45.3,40.1,30.03,WSW,246,7.0,12.0,82,0.00,,,0.05,Wunderground v.1.15,2013-01-26 20:32:00,
2013-01-26 12:37:00,45.7,40.2,30.03,WSW,245,8.0,12.0,81,0.00,,,0.05,Wunderground v.1.15,2013-01-26 20:37:00,
2013-01-26 12:42:00,45.6,39.5,30.03,WSW,246,8.0,12.0,79,0.00,,,0.05,Wunderground v.1.15,2013-01-26 20:42:00,
2013-01-26 12:48:00,45.9,40.1,30.03,SW,223,6.0,12.0,80,0.00,,,0.05,Wunderground v.1.15,2013-01-26 20:48:00,
2013-01-26 12:54:00,46.4,40.2,30.03,SW,221,6.0,12.0,79,0.00,,,0.05,Wunderground v.1.15,2013-01-26 20:54:00,
2013-01-26 12:59:00,46.5,40.0,30.02,WSW,245,7.0,12.0,78,0.00,,,0.05,Wunderground v.1.15,2013-01-26 20:59:00,
2013-01-26 13:04:00,46.6,39.8,30.03,SW,226,8.0,12.0,77,0.00,,,0.05,Wunderground v.1.15,2013-01-26 21:04:00,
2013-01-26 13:10:00,47.0,41.1,30.02,SSW,199,8.0,8.0,80,0.00,,,0.05,Wunderground v.1.15,2013-01-26 21:10:00,
2013-01-26 13:16:00,47.2,42.0,30.02,SSW,206,7.0,12.0,82,0.00,,,0.05,Wunderground v.1.15,2013-01-26 21:16:00,
2013-01-26 13:21:00,47.1,41.9,30.02,SSW,212,6.0,12.0,82,0.00,,,0.05,Wunderground v.1.15,2013-01-26 21:21:00,
2013-01-26 13:26:00,47.2,42.6,30.02,SSW,202,7.0,12.0,84,0.00,,,0.05,Wunderground v.1.15,2013-01-26 21:26:00,
2013-01-26 13:31:00,47.5,42.6,30.02,SSW,209,6.0,12.0,83,0.00,,,0.05,Wunderground v.1.15,2013-01-26 21:31:00,
2013-01-26 13:37:00,47.3,42.4,30.02,SSW,204,6.0,12.0,83,0.00,,,0.05,Wunderground v.1.15,2013-01-26 21:37:00,
2013-01-26 13:43:00,46.9,40.7,30.02,SW,223,7.0,12.0,79,0.00,,,0.05,Wunderground v.1.15,2013-01-26 21:43:00,
2013-01-26 13:48:00,46.8,40.3,30.02,SW,223,8.0,12.0,78,0.00,,,0.05,Wunderground v.1.15,2013-01-26 21:48:00,
2013-01-26 13:54:00,46.9,40.1,30.02,SW,223,7.0,12.0,77,0.00,,,0.05,Wunderground v.1.15,2013-01-26 21:54:00,
2013-01-26 14:00:00,47.4,40.6,30.02,SW,232,7.0,12.0,77,0.00,,,0.05,Wunderground v.1.15,2013-01-26 22:00:00,
2013-01-26 14:06:00,47.7,40.5,30.02,SW,232,7.0,12.0,76,0.00,,,0.05,Wunderground v.1.15,2013-01-26 22:06:00,
2013-01-26 14:11:00,47.5,40.6,30.02,SW,216,7.0,12.0,77,0.00,,,0.05,Wunderground v.1.15,2013-01-26 22:11:00,
2013-01-26 14:17:00,46.7,40.2,30.01,SW,229,7.0,12.0,78,0.00,,,0.05,Wunderground v.1.15,2013-01-26 22:17:00,
2013-01-26 14:23:00,46.1,39.6,30.02,SW,230,8.0,12.0,78,0.00,,,0.05,Wunderground v.1.15,2013-01-26 22:23:00,
2013-01-26 14:28:00,45.6,38.8,30.02,SW,227,8.0,12.0,77,0.00,,,0.05,Wunderground v.1.15,2013-01-26 22:28:00,
2013-01-26 14:34:00,46.2,39.1,30.02,SW,225,7.0,12.0,76,0.00,,,0.05,Wunderground v.1.15,2013-01-26 22:34:00,
2013-01-26 14:39:00,46.1,39.3,30.02,SW,218,6.0,12.0,77,0.00,,,0.05,Wunderground v.1.15,2013-01-26 22:39:00,
2013-01-26 14:45:00,46.3,39.8,30.02,SW,225,5.0,12.0,78,0.00,,,0.05,Wunderground v.1.15,2013-01-26 22:45:00,
2013-01-26 14:51:00,46.9,39.7,30.02,SW,235,7.0,12.0,76,0.00,,,0.05,Wunderground v.1.15,2013-01-26 22:51:00,
2013-01-26 14:57:00,46.7,39.9,30.02,SW,232,7.0,12.0,77,0.00,,,0.05,Wunderground v.1.15,2013-01-26 22:57:00,
2013-01-26 15:03:00,46.4,40.6,30.02,SW,221,7.0,12.0,80,0.00,,,0.05,Wunderground v.1.15,2013-01-26 23:03:00,
2013-01-26 15:09:00,46.2,40.7,30.02,WSW,239,8.0,12.0,81,0.00,,,0.05,Wunderground v.1.15,2013-01-26 23:09:00,
2013-01-26 15:15:00,45.6,40.4,30.02,SW,227,9.0,12.0,82,0.00,,,0.05,Wunderground v.1.15,2013-01-26 23:15:00,
2013-01-26 15:21:00,45.1,39.6,30.03,SW,223,8.0,12.0,81,0.00,,,0.05,Wunderground v.1.15,2013-01-26 23:21:00,
2013-01-26 15:26:00,44.8,39.3,30.03,SW,229,8.0,12.0,81,0.00,,,0.05,Wunderground v.1.15,2013-01-26 23:26:00,
2013-01-26 15:32:00,45.2,39.7,30.03,SW,229,7.0,12.0,81,0.00,,,0.05,Wunderground v.1.15,2013-01-26 23:32:00,
2013-01-26 15:38:00,44.9,39.7,30.03,WSW,244,8.0,12.0,82,0.00,,,0.05,Wunderground v.1.15,2013-01-26 23:38:00,
2013-01-26 15:44:00,44.9,39.1,30.03,WSW,242,9.0,12.0,80,0.00,,,0.05,Wunderground v.1.15,2013-01-26 23:44:00,
2013-01-26 15:49:00,45.1,39.0,30.03,SW,235,7.0,12.0,79,0.00,,,0.05,Wunderground v.1.15,2013-01-26 23:49:00,
2013-01-26 15:55:00,45.5,39.4,30.03,WSW,251,7.0,12.0,79,0.00,,,0.05,Wunderground v.1.15,2013-01-26 23:55:00,
2013-01-26 16:01:00,45.7,40.2,30.03,WSW,248,7.0,12.0,81,0.00,,,0.05,Wunderground v.1.15,2013-01-27 00:01:00,
2013-01-26 16:07:00,46.2,40.7,30.03,West,267,7.0,12.0,81,0.00,,,0.05,Wunderground v.1.15,2013-01-27 00:07:00,
2013-01-26 16:12:00,46.3,40.1,30.03,SW,234,6.0,12.0,79,0.00,,,0.05,Wunderground v.1.15,2013-01-27 00:12:00,
2013-01-26 16:17:00,45.7,39.9,30.03,WSW,249,6.0,12.0,80,0.00,,,0.05,Wunderground v.1.15,2013-01-27 00:17:00,
2013-01-26 16:23:00,45.6,40.1,30.03,WSW,254,7.0,12.0,81,0.00,,,0.05,Wunderground v.1.15,2013-01-27 00:23:00,
2013-01-26 16:28:00,45.5,39.7,30.03,WSW,244,7.0,12.0,80,0.00,,,0.05,Wunderground v.1.15,2013-01-27 00:28:00,
2013-01-26 16:34:00,45.4,39.6,30.03,WSW,247,6.0,12.0,80,0.00,,,0.05,Wunderground v.1.15,2013-01-27 00:34:00,
2013-01-26 16:40:00,45.3,39.5,30.03,West,259,6.0,12.0,80,0.00,,,0.05,Wunderground v.1.15,2013-01-27 00:40:00,
2013-01-26 16:46:00,45.2,39.4,30.03,West,262,7.0,12.0,80,0.00,,,0.05,Wunderground v.1.15,2013-01-27 00:46:00,
2013-01-26 16:51:00,45.3,39.8,30.03,West,263,6.0,12.0,81,0.00,,,0.05,Wunderground v.1.15,2013-01-27 00:51:00,
2013-01-26 16:56:00,45.3,39.8,30.04,West,274,6.0,12.0,81,0.00,,,0.05,Wunderground v.1.15,2013-01-27 00:56:00,
2013-01-26 17:02:00,44.7,39.2,30.04,NW,309,8.0,12.0,81,0.00,,,0.05,Wunderground v.1.15,2013-01-27 01:02:00,
2013-01-26 17:08:00,43.7,39.5,30.04,NW,311,8.0,12.0,85,0.00,,,0.05,Wunderground v.1.15,2013-01-27 01:08:00,
2013-01-26 17:13:00,43.6,39.7,30.04,WSW,237,7.0,12.0,86,0.00,,,0.06,Wunderground v.1.15,2013-01-27 01:13:00,
2013-01-26 17:18:00,43.4,39.2,30.04,WSW,241,6.0,12.0,85,0.00,,,0.06,Wunderground v.1.15,2013-01-27 01:18:00,
2013-01-26 17:24:00,43.8,39.6,30.05,WSW,238,5.0,12.0,85,0.00,,,0.06,Wunderground v.1.15,2013-01-27 01:24:00,
2013-01-26 17:30:00,44.1,39.9,30.05,West,266,5.0,12.0,85,0.00,,,0.06,Wunderground v.1.15,2013-01-27 01:30:00,
2013-01-26 17:35:00,43.6,39.1,30.05,NW,323,6.0,12.0,84,0.00,,,0.07,Wunderground v.1.15,2013-01-27 01:35:00,
2013-01-26 17:40:00,43.2,39.0,30.05,WSW,249,5.0,5.0,85,0.00,,,0.07,Wunderground v.1.15,2013-01-27 01:40:00,
2013-01-26 17:46:00,43.1,38.9,30.05,WSW,249,3.0,12.0,85,0.00,,,0.07,Wunderground v.1.15,2013-01-27 01:46:00,
2013-01-26 17:52:00,43.1,38.9,30.05,WSW,249,2.0,12.0,85,0.00,,,0.07,Wunderground v.1.15,2013-01-27 01:52:00,
2013-01-26 17:57:00,43.1,38.9,30.05,WSW,249,1.0,12.0,85,0.00,,,0.07,Wunderground v.1.15,2013-01-27 01:57:00,
2013-01-26 18:03:00,43.0,39.1,30.05,WSW,249,1.0,12.0,86,0.00,,,0.07,Wunderground v.1.15,2013-01-27 02:03:00,
2013-01-26 18:08:00,42.8,38.9,30.06,WSW,249,0.0,12.0,86,0.00,,,0.07,Wunderground v.1.15,2013-01-27 02:08:00,
2013-01-26 18:13:00,42.7,39.4,30.06,WSW,258,1.0,12.0,88,0.00,,,0.07,Wunderground v.1.15,2013-01-27 02:13:00,
2013-01-26 18:19:00,42.9,39.6,30.06,SW,225,4.0,12.0,88,0.00,,,0.08,Wunderground v.1.15,2013-01-27 02:19:00,
2013-01-26 18:24:00,43.0,39.7,30.06,SW,227,7.0,12.0,88,0.00,,,0.08,Wunderground v.1.15,2013-01-27 02:24:00,
2013-01-26 18:30:00,43.0,39.7,30.06,SW,226,6.0,6.0,88,0.00,,,0.08,Wunderground v.1.15,2013-01-27 02:30:00,
2013-01-26 18:35:00,43.1,39.8,30.06,SW,227,5.0,12.0,88,0.00,,,0.08,Wunderground v.1.15,2013-01-27 02:35:00,
2013-01-26 18:41:00,43.3,40.0,30.07,SW,227,4.0,12.0,88,0.00,,,0.08,Wunderground v.1.15,2013-01-27 02:41:00,
2013-01-26 18:46:00,43.4,39.8,30.07,SW,227,3.0,12.0,87,0.00,,,0.08,Wunderground v.1.15,2013-01-27 02:46:00,
2013-01-26 18:52:00,43.6,40.0,30.07,SW,226,4.0,12.0,87,0.00,,,0.08,Wunderground v.1.15,2013-01-27 02:52:00,
2013-01-26 18:58:00,43.8,40.5,30.07,NW,320,6.0,12.0,88,0.00,,,0.08,Wunderground v.1.15,2013-01-27 02:58:00,
2013-01-26 19:03:00,43.4,39.5,30.07,WNW,300,8.0,12.0,86,0.00,,,0.08,Wunderground v.1.15,2013-01-27 03:03:00,
2013-01-26 19:09:00,43.4,39.5,30.07,WSW,254,7.0,12.0,86,0.00,,,0.08,Wunderground v.1.15,2013-01-27 03:09:00,
2013-01-26 19:15:00,43.3,38.8,30.07,WSW,246,6.0,12.0,84,0.00,,,0.08,Wunderground v.1.15,2013-01-27 03:15:00,
2013-01-26 19:21:00,43.5,39.3,30.08,West,259,5.0,12.0,85,0.00,,,0.08,Wunderground v.1.15,2013-01-27 03:21:00,
2013-01-26 19:27:00,43.5,39.6,30.08,WSW,250,4.0,12.0,86,0.00,,,0.08,Wunderground v.1.15,2013-01-27 03:27:00,
2013-01-26 19:32:00,43.4,39.8,30.08,WSW,250,3.0,12.0,87,0.00,,,0.08,Wunderground v.1.15,2013-01-27 03:32:00,
2013-01-26 19:38:00,43.2,39.6,30.08,WSW,250,3.0,12.0,87,0.00,,,0.08,Wunderground v.1.15,2013-01-27 03:38:00,
2013-01-26 19:44:00,43.4,39.8,30.08,WSW,250,2.0,12.0,87,0.00,,,0.08,Wunderground v.1.15,2013-01-27 03:44:00,
2013-01-26 19:49:00,43.5,40.2,30.08,WSW,250,2.0,12.0,88,0.00,,,0.08,Wunderground v.1.15,2013-01-27 03:49:00,
2013-01-26 19:55:00,43.7,40.4,30.08,NW,318,2.0,12.0,88,0.00,,,0.08,Wunderground v.1.15,2013-01-27 03:55:00,
2013-01-26 20:00:00,43.5,40.2,30.08,North,355,7.0,12.0,88,0.00,,,0.09,Wunderground v.1.15,2013-01-27 04:00:00,
2013-01-26 20:05:00,43.0,39.7,30.09,NNW,348,10.0,12.0,88,0.00,,,0.09,Wunderground v.1.15,2013-01-27 04:05:00,
2013-01-26 20:10:00,42.9,39.3,30.08,North,355,7.0,7.0,87,0.00,,,0.09,Wunderground v.1.15,2013-01-27 04:10:00,
2013-01-26 20:16:00,43.0,39.1,30.09,North,355,5.0,12.0,86,0.00,,,0.09,Wunderground v.1.15,2013-01-27 04:16:00,
2013-01-26 20:22:00,43.1,39.2,30.09,NNW,333,4.0,12.0,86,0.00,,,0.09,Wunderground v.1.15,2013-01-27 04:22:00,
2013-01-26 20:28:00,43.2,39.3,30.09,NNW,331,4.0,12.0,86,0.00,,,0.09,Wunderground v.1.15,2013-01-27 04:28:00,
2013-01-26 20:34:00,43.4,39.2,30.09,NNW,327,4.0,12.0,85,0.00,,,0.09,Wunderground v.1.15,2013-01-27 04:34:00,
2013-01-26 20:39:00,43.5,39.6,30.09,NNW,327,3.0,12.0,86,0.00,,,0.09,Wunderground v.1.15,2013-01-27 04:39:00,
2013-01-26 20:45:00,43.2,39.0,30.10,North,349,2.0,12.0,85,0.00,,,0.09,Wunderground v.1.15,2013-01-27 04:45:00,
2013-01-26 20:50:00,43.4,39.8,30.10,North,360,3.0,12.0,87,0.00,,,0.09,Wunderground v.1.15,2013-01-27 04:50:00,
2013-01-26 20:55:00,43.1,39.2,30.10,North,5,3.0,12.0,86,0.00,,,0.09,Wunderground v.1.15,2013-01-27 04:55:00,
2013-01-26 21:01:00,42.3,38.7,30.10,NNE,13,1.0,12.0,87,0.00,,,0.09,Wunderground v.1.15,2013-01-27 05:01:00,
2013-01-26 21:02:00,42.2,38.6,30.09,NNE,13,1.0,12.0,87,0.00,,,0.09,Wunderground v.1.15,2013-01-27 05:02:00,
2013-01-26 21:03:00,42.0,38.4,30.09,NNE,13,0.0,12.0,87,0.00,,,0.09,Wunderground v.1.15,2013-01-27 05:03:00,
2013-01-26 21:05:00,41.9,38.6,30.10,NNE,13,0.0,12.0,88,0.00,,,0.09,Wunderground v.1.15,2013-01-27 05:05:00,
2013-01-26 21:10:00,41.6,38.6,30.10,NE,49,1.0,12.0,89,0.00,,,0.09,Wunderground v.1.15,2013-01-27 05:10:00,
2013-01-26 21:16:00,41.3,38.3,30.10,East,85,2.0,12.0,89,0.00,,,0.09,Wunderground v.1.15,2013-01-27 05:16:00,
2013-01-26 21:21:00,41.2,38.5,30.10,East,85,2.0,12.0,90,0.00,,,0.09,Wunderground v.1.15,2013-01-27 05:21:00,
2013-01-26 21:27:00,41.0,38.6,30.10,East,88,1.0,12.0,91,0.00,,,0.09,Wunderground v.1.15,2013-01-27 05:27:00,
2013-01-26 21:32:00,40.8,38.4,30.10,East,90,2.0,12.0,91,0.00,,,0.09,Wunderground v.1.15,2013-01-27 05:32:00,
2013-01-26 21:37:00,40.7,38.3,30.10,East,92,3.0,12.0,91,0.00,,,0.09,Wunderground v.1.15,2013-01-27 05:37:00,
2013-01-26 21:43:00,40.6,38.5,30.11,East,92,3.0,12.0,92,0.00,,,0.09,Wunderground v.1.15,2013-01-27 05:43:00,
2013-01-26 21:53:00,40.7,38.6,30.11,East,92,1.0,1.0,92,0.00,,,0.09,Wunderground v.1.15,2013-01-27 05:53:00,
2013-01-26 21:59:00,40.5,38.4,30.11,East,94,3.0,5.0,92,0.00,,,0.09,Wunderground v.1.15,2013-01-27 05:59:00,
2013-01-26 22:05:00,40.4,38.5,30.12,East,94,3.0,5.0,93,0.00,,,0.10,Wunderground v.1.15,2013-01-27 06:05:00,
2013-01-26 22:10:00,40.4,38.5,30.11,SE,124,2.0,3.0,93,0.19,,,0.13,Wunderground v.1.15,2013-01-27 06:10:00,
2013-01-26 22:16:00,40.4,38.5,30.11,SE,124,2.0,3.0,93,0.07,,,0.13,Wunderground v.1.15,2013-01-27 06:16:00,
2013-01-26 22:21:00,40.4,38.5,30.12,SE,124,2.0,2.0,93,0.04,,,0.13,Wunderground v.1.15,2013-01-27 06:21:00,
2013-01-26 22:27:00,40.3,38.4,30.12,SE,124,1.0,3.0,93,0.00,,,0.13,Wunderground v.1.15,2013-01-27 06:27:00,
2013-01-26 22:33:00,40.0,38.1,30.12,SE,128,3.0,6.0,93,0.00,,,0.13,Wunderground v.1.15,2013-01-27 06:33:00,
2013-01-26 22:39:00,39.8,37.9,30.12,SE,128,4.0,6.0,93,0.00,,,0.13,Wunderground v.1.15,2013-01-27 06:39:00,
2013-01-26 22:45:00,39.6,38.0,30.13,SE,128,3.0,6.0,94,0.00,,,0.13,Wunderground v.1.15,2013-01-27 06:45:00,
2013-01-26 22:50:00,39.5,37.9,30.12,SE,130,3.0,6.0,94,0.00,,,0.13,Wunderground v.1.15,2013-01-27 06:50:00,
2013-01-26 22:55:00,39.5,37.9,30.12,SE,133,4.0,6.0,94,0.00,,,0.13,Wunderground v.1.15,2013-01-27 06:55:00,
2013-01-26 23:00:00,39.5,37.9,30.12,SE,133,4.0,6.0,94,0.00,,,0.13,Wunderground v.1.15,2013-01-27 07:00:00,
2013-01-26 23:06:00,39.5,37.9,30.13,SE,134,4.0,6.0,94,0.00,,,0.13,Wunderground v.1.15,2013-01-27 07:06:00,
2013-01-26 23:13:00,39.7,38.4,30.14,ENE,62,3.0,7.0,95,0.00,,,0.14,Wunderground v.1.15,2013-01-27 07:13:00,
2013-01-26 23:18:00,39.9,38.6,30.14,ESE,105,3.0,8.0,95,0.00,,,0.14,Wunderground v.1.15,2013-01-27 07:18:00,
2013-01-26 23:23:00,40.0,38.7,30.14,ESE,105,3.0,6.0,95,0.00,,,0.14,Wunderground v.1.15,2013-01-27 07:23:00,
2013-01-26 23:28:00,40.0,38.7,30.14,ESE,105,2.0,6.0,95,0.00,,,0.14,Wunderground v.1.15,2013-01-27 07:28:00,
2013-01-26 23:34:00,39.9,38.6,30.14,ESE,105,2.0,6.0,95,0.00,,,0.14,Wunderground v.1.15,2013-01-27 07:34:00,
2013-01-26 23:39:00,39.7,38.1,30.14,ESE,106,2.0,6.0,94,0.00,,,0.14,Wunderground v.1.15,2013-01-27 07:39:00,
2013-01-26 23:45:00,39.5,38.2,30.14,ESE,106,3.0,6.0,95,0.00,,,0.14,Wunderground v.1.15,2013-01-27 07:45:00,
2013-01-26 23:51:00,39.4,38.1,30.14,ENE,78,3.0,4.0,95,0.00,,,0.14,Wunderground v.1.15,2013-01-27 07:51:00,
2013-01-26 23:56:00,39.4,38.1,30.14,East,90,3.0,6.0,95,0.00,,,0.14,Wunderground v.1.15,2013-01-27 07:56:00,